CST,Max TemperatureF,Mean TemperatureF,Min TemperatureF,Max Dew PointF,MeanDew PointF,Min DewpointF,Max Humidity, Mean Humidity, Min Humidity, Max Sea Level PressureIn, Mean Sea Level PressureIn, Min Sea Level PressureIn, Max VisibilityMiles, Mean VisibilityMiles, Min VisibilityMiles, Max Wind SpeedMPH, Mean Wind SpeedMPH, Max Gust SpeedMPH,PrecipitationIn, CloudCover, Events, WindDirDegrees
2011-12-1,61,52,43,48,38,31,72,59,46,30.36,30.11,29.93,10,10,10,22,13,28,T,5,Rain,18
2011-12-2,43,39,35,40,36,30,100,85,70,30.37,30.24,30.06,10,5,1,25,6,29,0.07,8,Rain,22
2011-12-3,62,51,40,59,49,36,100,80,60,30.18,29.98,29.86,10,9,1,31,11,39,0.09,7,Rain,108
2011-12-4,41,39,36,37,35,33,100,90,79,30.21,30.15,30.09,10,10,5,20,10,25,0.24,8,Rain,16
2011-12-5,38,34,29,34,29,21,100,85,69,30.38,30.26,30.11,10,7,1,24,15,30,0.27,8,Snow,3
2011-12-6,29,26,22,22,21,19,88,82,75,30.43,30.37,30.31,10,10,10,20,11,23,0.00,6,,321
2011-12-7,51,35,19,32,23,17,92,60,27,30.40,30.31,30.23,10,10,10,10,4,13,0.00,0,,199
2011-12-8,57,45,32,33,29,25,75,57,38,30.22,30.12,30.01,10,10,10,22,10,29,0.00,0,,180
2011-12-9,47,40,32,35,32,30,92,75,58,30.50,30.29,30.10,10,9,6,20,10,25,0.00,3,,339
2011-12-10,40,36,32,36,32,30,92,84,76,30.58,30.50,30.43,9,6,2,14,5,17,T,8,Rain,18
2011-12-11,47,43,38,39,37,33,100,80,60,30.44,30.31,30.20,10,7,2,21,10,26,0.21,8,Rain,145
2011-12-12,47,45,42,47,42,36,100,85,70,30.23,30.18,30.15,10,6,2,21,10,23,0.01,8,Rain,144
2011-12-13,65,56,47,63,56,46,100,97,93,30.18,30.09,29.96,10,6,2,29,17,36,0.03,8,Rain,146
2011-12-14,71,63,54,65,57,40,93,67,40,30.02,29.95,29.88,10,9,1,22,11,31,0.43,6,Rain,205
2011-12-15,55,49,42,43,39,35,86,68,50,30.31,30.17,30.01,10,10,8,15,8,18,0.05,7,Rain-Thunderstorm,5
2011-12-16,52,43,33,36,30,23,96,67,38,30.47,30.39,30.31,10,10,10,15,7,18,0.00,0,,1
2011-12-17,59,45,31,38,33,29,96,65,33,30.53,30.45,30.40,10,10,10,9,3,14,0.00,4,,191
2011-12-18,59,55,50,50,42,32,83,66,48,30.38,30.17,29.99,10,10,10,21,10,25,T,7,Thunderstorm,174
2011-12-19,61,53,44,59,49,33,100,70,39,29.99,29.80,29.73,10,7,2,28,13,41,0.37,6,Rain-Thunderstorm,186
2011-12-20,51,42,32,36,29,27,82,70,57,30.05,29.98,29.85,10,10,10,29,16,36,0.00,1,,288
2011-12-21,58,44,29,37,31,26,85,62,39,30.02,29.93,29.83,10,10,10,20,9,23,0.00,0,,184
2011-12-22,46,40,34,35,33,30,100,79,58,30.38,30.16,29.86,10,10,6,24,14,30,T,5,,332
2011-12-23,39,35,31,30,28,25,89,77,64,30.50,30.41,30.36,10,10,10,23,11,28,0.00,8,,9
2011-12-24,36,34,32,34,31,27,100,88,75,30.48,30.41,30.36,10,8,2,12,6,14,0.09,8,Rain-Snow,350
2011-12-25,42,38,33,37,35,33,100,88,76,30.48,30.41,30.37,10,8,2,10,6,13,0.07,8,Rain-Snow,334
2011-12-26,47,40,32,36,33,29,92,73,53,30.33,30.18,30.06,10,10,10,21,6,26,0.00,6,,276
2011-12-27,58,44,30,30,28,25,85,58,30,30.33,30.22,30.13,10,10,10,14,6,17,0.00,0,,277
2011-12-28,55,45,34,33,31,28,82,62,41,30.11,30.05,29.99,10,10,10,24,10,30,0.00,0,,243
2011-12-29,69,51,33,34,29,26,89,55,20,30.06,29.92,29.81,10,10,10,22,9,28,0.00,0,,195
2011-12-30,67,54,40,36,29,17,73,44,15,30.13,30.03,29.81,10,10,10,17,6,23,0.00,0,,42
2011-12-31,79,61,42,35,29,21,58,38,17,30.30,29.99,29.85,10,10,10,33,13,40,0.00,0,,209